Time;durP1;ratioP1;P1;durP2;ratioP2;P2;SDS_P1;SDS_P2;PMS_P1;PMS_P2;Temp;Humidity;BMP_temperature;BMP_pressure;BME280_temperature;BME280_humidity;BME280_pressure;Samples;Min_cycle;Max_cycle;Signal;HPM_P1;HPM_P2
2023/06/08 00:01:25;;;;;;;10.18;5.53;;;16.30;71.80;;;;;;5088119;28;20020;-71
2023/06/08 00:03:52;;;;;;;9.82;5.57;;;16.30;71.30;;;;;;5088000;28;20050;-71
2023/06/08 00:06:20;;;;;;;12.43;6.07;;;16.20;71.60;;;;;;5090497;28;20048;-72
2023/06/08 00:08:46;;;;;;;11.52;5.93;;;16.20;71.80;;;;;;5086392;28;20347;-71
2023/06/08 00:11:12;;;;;;;8.68;5.45;;;16.20;72.00;;;;;;5092511;28;20043;-71
2023/06/08 00:13:38;;;;;;;9.73;5.75;;;16.10;72.00;;;;;;5090892;28;20016;-72
2023/06/08 00:16:04;;;;;;;12.05;6.13;;;16.10;72.30;;;;;;5098589;28;20024;-72
2023/06/08 00:18:30;;;;;;;10.75;5.80;;;16.10;72.50;;;;;;5101104;28;20080;-72
2023/06/08 00:20:56;;;;;;;10.60;5.45;;;16.00;72.80;;;;;;5109266;28;20470;-72
2023/06/08 00:23:22;;;;;;;9.90;5.50;;;16.00;72.70;;;;;;5090205;28;20474;-72
2023/06/08 00:25:48;;;;;;;12.13;6.10;;;16.00;72.80;;;;;;5107579;28;20012;-72
2023/06/08 00:28:13;;;;;;;9.57;5.25;;;16.00;72.80;;;;;;5100350;28;20074;-72
2023/06/08 00:30:39;;;;;;;11.23;6.05;;;15.90;72.90;;;;;;5087393;28;20028;-72
2023/06/08 00:33:05;;;;;;;9.93;5.85;;;15.90;73.10;;;;;;5092794;28;20021;-71
2023/06/08 00:35:31;;;;;;;10.48;5.85;;;15.80;73.20;;;;;;5072309;28;20016;-71
2023/06/08 00:37:56;;;;;;;13.57;6.82;;;15.80;73.40;;;;;;5084773;28;20501;-71
2023/06/08 00:40:22;;;;;;;10.35;5.50;;;15.70;73.50;;;;;;5085218;28;20036;-71
2023/06/08 00:42:48;;;;;;;10.50;6.18;;;15.70;73.80;;;;;;5087585;28;20379;-71
2023/06/08 00:45:13;;;;;;;11.15;5.70;;;15.60;74.00;;;;;;5076304;28;20028;-71
2023/06/08 00:47:39;;;;;;;10.35;6.28;;;15.60;74.10;;;;;;5084502;28;20035;-72
2023/06/08 00:50:08;;;;;;;10.85;5.82;;;15.50;74.40;;;;;;5076095;28;20052;-72
2023/06/08 00:52:35;;;;;;;11.30;5.47;;;15.40;74.60;;;;;;5077430;28;20438;-70
2023/06/08 00:55:02;;;;;;;9.60;6.07;;;15.40;74.90;;;;;;5085363;28;20031;-70
2023/06/08 00:57:30;;;;;;;13.07;6.38;;;15.40;75.10;;;;;;5081681;28;20028;-69
2023/06/08 01:00:01;;;;;;;10.23;5.82;;;15.30;75.20;;;;;;5082566;28;20545;-68
2023/06/08 01:02:27;;;;;;;10.48;6.32;;;15.30;75.50;;;;;;5074686;28;20024;-69
2023/06/08 01:04:53;;;;;;;9.25;5.35;;;15.20;75.60;;;;;;5073492;28;20402;-68
2023/06/08 01:07:49;;;;;;;12.95;6.68;;;15.20;75.70;;;;;;5074823;28;20070;-69
2023/06/08 01:10:18;;;;;;;11.57;6.88;;;15.10;76.00;;;;;;5085022;28;20038;-71
2023/06/08 01:12:56;;;;;;;11.20;6.38;;;15.10;76.30;;;;;;5087555;28;20012;-71
2023/06/08 01:15:31;;;;;;;11.00;5.68;;;15.10;76.50;;;;;;5092649;28;20028;-70
2023/06/08 01:18:04;;;;;;;10.40;6.20;;;15.00;76.50;;;;;;5075990;28;20028;-70
2023/06/08 01:20:49;;;;;;;13.88;6.97;;;15.00;76.80;;;;;;5072212;28;20490;-70
2023/06/08 01:23:34;;;;;;;12.00;6.63;;;14.90;77.20;;;;;;5072076;28;20533;-70
2023/06/08 01:26:00;;;;;;;11.45;6.63;;;14.90;77.40;;;;;;5072239;28;20044;-70
2023/06/08 01:28:28;;;;;;;11.05;6.68;;;14.80;77.40;;;;;;5088622;28;20498;-70
2023/06/08 01:30:54;;;;;;;11.52;6.40;;;14.80;77.60;;;;;;5090609;28;20107;-71
2023/06/08 01:33:22;;;;;;;10.82;6.13;;;14.80;77.80;;;;;;5092664;28;20059;-71
2023/06/08 01:35:57;;;;;;;13.73;7.03;;;14.70;77.90;;;;;;5092661;28;20020;-71
2023/06/08 01:39:00;;;;;;;12.43;6.57;;;14.70;78.10;;;;;;5078784;28;20028;-71
2023/06/08 01:41:30;;;;;;;11.45;6.47;;;14.70;78.30;;;;;;5088188;28;20466;-71
2023/06/08 01:43:57;;;;;;;10.73;5.50;;;14.70;78.30;;;;;;5089453;28;20024;-70
2023/06/08 01:46:24;;;;;;;12.50;5.97;;;14.70;78.20;;;;;;5087852;28;20391;-70
2023/06/08 01:48:51;;;;;;;11.88;6.60;;;14.70;78.20;;;;;;5075100;28;20109;-70
2023/06/08 01:51:18;;;;;;;13.20;6.25;;;14.60;78.20;;;;;;5071235;28;20024;-70
2023/06/08 01:53:44;;;;;;;12.18;5.93;;;14.60;78.40;;;;;;5079218;28;20030;-70
2023/06/08 01:56:10;;;;;;;12.48;6.40;;;14.60;78.30;;;;;;5089447;28;20020;-70
2023/06/08 01:58:35;;;;;;;10.85;6.22;;;14.60;78.40;;;;;;5077686;28;20021;-71
2023/06/08 02:01:01;;;;;;;11.90;6.63;;;14.60;78.30;;;;;;5079116;28;20033;-70
2023/06/08 02:03:27;;;;;;;10.18;5.82;;;14.60;78.40;;;;;;5080760;28;20494;-70
2023/06/08 02:05:52;;;;;;;10.85;6.50;;;14.60;78.40;;;;;;5088159;28;20068;-71
2023/06/08 02:08:18;;;;;;;12.70;6.65;;;14.60;78.40;;;;;;5082962;28;20028;-70
2023/06/08 02:10:43;;;;;;;12.05;6.40;;;14.60;78.50;;;;;;5086806;28;20028;-70
2023/06/08 02:13:09;;;;;;;9.30;5.97;;;14.50;78.60;;;;;;5079371;28;20032;-70
2023/06/08 02:15:35;;;;;;;10.93;6.50;;;14.60;78.70;;;;;;5081725;28;20048;-71
2023/06/08 02:18:01;;;;;;;10.95;7.10;;;14.50;78.70;;;;;;5079285;28;20107;-71
2023/06/08 02:20:27;;;;;;;12.20;6.70;;;14.60;79.00;;;;;;5070718;28;20028;-71
2023/06/08 02:22:52;;;;;;;11.98;7.20;;;14.50;79.00;;;;;;5069106;28;20032;-72
2023/06/08 02:25:18;;;;;;;13.40;7.45;;;14.50;79.00;;;;;;5079436;28;20643;-70
2023/06/08 02:27:44;;;;;;;11.10;6.50;;;14.50;79.20;;;;;;5085645;28;20040;-70
2023/06/08 02:30:12;;;;;;;13.27;7.57;;;14.40;79.30;;;;;;5079922;28;20032;-70
2023/06/08 02:32:41;;;;;;;12.65;6.50;;;14.40;79.40;;;;;;5090662;28;20486;-70
2023/06/08 02:35:08;;;;;;;12.27;6.50;;;14.40;79.50;;;;;;5091109;28;20031;-69
2023/06/08 02:37:34;;;;;;;10.18;6.43;;;14.40;79.50;;;;;;5085378;28;20021;-69
2023/06/08 02:40:00;;;;;;;10.40;6.90;;;14.40;79.50;;;;;;5082922;28;20037;-69
2023/06/08 02:42:26;;;;;;;11.43;6.63;;;14.30;79.60;;;;;;5083637;28;20089;-70
2023/06/08 02:44:52;;;;;;;13.45;7.10;;;14.30;79.70;;;;;;5073159;28;20475;-71
2023/06/08 02:47:19;;;;;;;15.95;7.75;;;14.30;80.20;;;;;;5072081;28;20077;-70
2023/06/08 02:49:44;;;;;;;12.63;6.93;;;14.30;80.20;;;;;;5092341;28;20060;-70
2023/06/08 02:52:10;;;;;;;11.13;7.00;;;14.20;80.30;;;;;;5092672;28;20016;-70
2023/06/08 02:54:36;;;;;;;12.02;7.53;;;14.30;80.30;;;;;;5087999;28;20025;-70
2023/06/08 02:57:02;;;;;;;10.68;7.05;;;14.20;80.30;;;;;;5091241;28;20414;-71
2023/06/08 02:59:29;;;;;;;14.73;7.47;;;14.20;80.30;;;;;;5088810;28;20024;-71
2023/06/08 03:01:56;;;;;;;13.68;7.40;;;14.20;80.40;;;;;;5087252;28;20042;-70
2023/06/08 03:04:22;;;;;;;12.95;6.82;;;14.10;81.20;;;;;;5089972;28;20033;-70
2023/06/08 03:06:54;;;;;;;12.68;7.70;;;14.10;80.60;;;;;;5087196;28;20035;-71
2023/06/08 03:09:21;;;;;;;15.00;7.82;;;14.10;80.70;;;;;;5083844;28;20089;-71
2023/06/08 03:11:47;;;;;;;12.02;8.43;;;14.10;81.30;;;;;;5073154;28;20029;-71
2023/06/08 03:14:12;;;;;;;11.25;7.15;;;14.00;81.20;;;;;;5074945;28;20096;-71
2023/06/08 03:16:38;;;;;;;10.68;6.70;;;14.10;81.10;;;;;;5081343;28;20111;-69
2023/06/08 03:19:04;;;;;;;12.05;7.35;;;14.10;80.90;;;;;;5085692;28;20082;-70
2023/06/08 03:21:29;;;;;;;11.95;7.40;;;14.10;80.80;;;;;;5072457;28;20052;-70
2023/06/08 03:23:55;;;;;;;14.23;9.32;;;14.00;80.70;;;;;;5074859;28;20074;-70
2023/06/08 03:26:24;;;;;;;12.10;7.72;;;14.00;81.10;;;;;;5074985;28;20031;-70
2023/06/08 03:28:50;;;;;;;13.13;8.32;;;14.00;81.20;;;;;;5081195;28;20079;-70
2023/06/08 03:31:16;;;;;;;12.23;7.45;;;14.00;81.20;;;;;;5081655;28;20036;-70
2023/06/08 03:33:41;;;;;;;13.07;7.95;;;13.90;81.20;;;;;;5075541;28;20537;-70
2023/06/08 03:36:07;;;;;;;13.55;8.15;;;13.90;81.40;;;;;;5078620;28;20107;-70
2023/06/08 03:38:32;;;;;;;10.35;7.93;;;13.80;81.30;;;;;;5073168;28;20024;-70
2023/06/08 03:40:58;;;;;;;11.02;7.65;;;13.80;81.50;;;;;;5074965;28;20104;-71
2023/06/08 03:43:23;;;;;;;12.52;8.68;;;13.80;81.60;;;;;;5068386;28;20113;-71
2023/06/08 03:45:49;;;;;;;12.15;8.10;;;13.70;81.50;;;;;;5089014;28;20024;-71
2023/06/08 03:48:15;;;;;;;14.80;8.73;;;13.70;81.60;;;;;;5079786;28;20020;-71
2023/06/08 03:50:43;;;;;;;14.75;8.45;;;13.60;81.80;;;;;;5073496;28;20032;-71
2023/06/08 03:53:10;;;;;;;13.73;8.95;;;13.60;82.20;;;;;;5083301;28;20012;-71
2023/06/08 03:55:36;;;;;;;15.02;9.30;;;13.60;82.40;;;;;;5088251;28;20394;-71
2023/06/08 03:58:02;;;;;;;15.63;10.18;;;13.50;82.60;;;;;;5078724;28;20036;-71
2023/06/08 04:00:29;;;;;;;15.25;9.30;;;13.40;82.90;;;;;;5080913;28;20081;-70
2023/06/08 04:02:55;;;;;;;13.07;8.35;;;13.50;82.90;;;;;;5091577;28;20032;-69
2023/06/08 04:05:21;;;;;;;15.65;9.90;;;13.50;82.90;;;;;;5090035;28;20061;-71
2023/06/08 04:07:52;;;;;;;14.05;9.30;;;13.50;83.10;;;;;;5103035;28;20031;-71
2023/06/08 04:10:18;;;;;;;12.73;8.38;;;13.50;83.20;;;;;;5085796;28;20047;-70
2023/06/08 04:12:44;;;;;;;15.07;10.30;;;13.50;83.10;;;;;;5074168;28;20021;-70
2023/06/08 04:15:13;;;;;;;12.65;8.93;;;13.50;83.30;;;;;;5080867;28;20039;-71
2023/06/08 04:17:43;;;;;;;15.32;9.48;;;13.50;83.20;;;;;;5086923;28;20016;-71
2023/06/08 04:20:11;;;;;;;11.68;8.88;;;13.50;83.20;;;;;;5073363;28;20028;-71
2023/06/08 04:22:36;;;;;;;15.65;10.18;;;13.60;83.10;;;;;;5084483;28;20048;-70
2023/06/08 04:25:03;;;;;;;14.07;9.68;;;13.60;83.00;;;;;;5087961;28;20079;-71
2023/06/08 04:27:29;;;;;;;14.88;9.65;;;13.60;82.90;;;;;;5078313;28;20025;-71
2023/06/08 04:29:54;;;;;;;15.05;9.82;;;13.60;82.90;;;;;;5072523;28;20045;-71
2023/06/08 04:32:20;;;;;;;14.15;9.07;;;13.70;82.70;;;;;;5072662;28;20112;-71
2023/06/08 04:34:45;;;;;;;15.52;9.85;;;13.70;82.60;;;;;;5080832;28;20020;-71
2023/06/08 04:37:11;;;;;;;18.13;10.73;;;13.80;82.70;;;;;;5085335;28;20085;-71
2023/06/08 04:39:38;;;;;;;15.57;10.13;;;13.80;82.60;;;;;;5087438;28;20020;-71
2023/06/08 04:42:05;;;;;;;11.63;8.88;;;13.80;82.50;;;;;;5091237;28;20433;-71
2023/06/08 04:44:33;;;;;;;12.50;8.82;;;13.90;82.30;;;;;;5080814;28;20023;-71
2023/06/08 04:46:59;;;;;;;15.52;8.32;;;13.90;82.20;;;;;;5079374;28;20024;-71
2023/06/08 04:49:31;;;;;;;13.98;8.68;;;14.00;82.00;;;;;;5089647;28;20020;-72
2023/06/08 04:51:58;;;;;;;11.88;8.45;;;14.00;81.70;;;;;;5088951;28;20382;-72
2023/06/08 04:54:25;;;;;;;16.55;10.32;;;14.10;81.60;;;;;;5083382;28;20016;-71
2023/06/08 04:56:53;;;;;;;13.13;9.35;;;14.20;81.40;;;;;;5086304;28;20016;-70
2023/06/08 04:59:19;;;;;;;14.15;9.13;;;14.30;81.00;;;;;;5073655;28;20056;-71
2023/06/08 05:01:45;;;;;;;12.32;8.65;;;14.60;80.40;;;;;;5090062;28;20420;-72
2023/06/08 05:04:11;;;;;;;12.07;8.95;;;14.90;79.40;;;;;;5074386;28;20017;-70
2023/06/08 05:06:37;;;;;;;13.52;9.02;;;15.20;78.40;;;;;;5073496;28;20062;-71
2023/06/08 05:09:02;;;;;;;13.65;9.05;;;15.60;77.20;;;;;;5085192;28;20024;-71
2023/06/08 05:11:28;;;;;;;15.57;9.43;;;15.80;76.00;;;;;;5072063;28;20024;-71
2023/06/08 05:13:54;;;;;;;13.73;9.43;;;16.10;75.10;;;;;;5085882;28;20056;-70
2023/06/08 05:16:19;;;;;;;13.95;8.77;;;16.20;74.40;;;;;;5093001;28;20464;-71
2023/06/08 05:18:45;;;;;;;13.50;8.88;;;16.40;73.70;;;;;;5092627;28;20028;-71
2023/06/08 05:21:11;;;;;;;13.32;8.13;;;16.60;73.00;;;;;;5087424;28;20028;-70
2023/06/08 05:23:36;;;;;;;11.60;7.95;;;16.70;72.50;;;;;;5073715;28;20020;-70
2023/06/08 05:26:02;;;;;;;10.95;7.80;;;16.90;72.50;;;;;;5084841;28;20112;-70
2023/06/08 05:28:27;;;;;;;11.10;7.50;;;17.00;71.50;;;;;;5081376;28;20039;-70
2023/06/08 05:30:53;;;;;;;10.98;7.28;;;17.20;71.10;;;;;;5083066;28;20024;-71
2023/06/08 05:33:18;;;;;;;11.32;8.23;;;17.30;70.60;;;;;;5077290;28;20028;-70
2023/06/08 05:35:44;;;;;;;9.02;6.95;;;17.50;70.10;;;;;;5082721;28;20053;-70
2023/06/08 05:38:10;;;;;;;12.68;8.30;;;17.20;70.20;;;;;;5085932;28;20173;-70
2023/06/08 05:40:35;;;;;;;12.25;7.95;;;17.10;70.50;;;;;;5078261;28;20479;-70
2023/06/08 05:43:01;;;;;;;11.43;8.55;;;16.80;71.10;;;;;;5087170;28;20036;-73
2023/06/08 05:45:27;;;;;;;10.77;7.40;;;16.60;71.80;;;;;;5099930;28;20130;-71
2023/06/08 05:47:52;;;;;;;11.63;7.93;;;16.90;71.80;;;;;;5080362;28;20028;-72
2023/06/08 05:50:18;;;;;;;11.05;7.68;;;17.20;71.00;;;;;;5086923;28;20026;-71
2023/06/08 05:52:44;;;;;;;9.48;7.07;;;17.30;70.50;;;;;;5086092;28;20055;-72
2023/06/08 05:55:10;;;;;;;11.93;8.40;;;17.50;70.10;;;;;;5080256;28;20060;-71
2023/06/08 05:57:36;;;;;;;13.25;7.93;;;17.70;69.70;;;;;;5076628;28;20023;-70
2023/06/08 06:00:06;;;;;;;11.50;7.25;;;17.70;69.30;;;;;;5074421;28;20033;-70
2023/06/08 06:02:31;;;;;;;12.18;7.55;;;17.70;69.30;;;;;;5090371;28;20048;-70
2023/06/08 06:04:57;;;;;;;9.55;6.45;;;17.80;68.90;;;;;;5086368;28;20059;-70
2023/06/08 06:07:22;;;;;;;9.38;6.72;;;17.90;68.80;;;;;;5086347;28;20024;-70
2023/06/08 06:09:48;;;;;;;9.65;7.18;;;17.90;68.60;;;;;;5080422;28;20506;-71
2023/06/08 06:12:13;;;;;;;10.95;7.28;;;17.80;68.40;;;;;;5087135;28;20020;-71
2023/06/08 06:14:41;;;;;;;8.60;6.20;;;17.80;68.70;;;;;;5086918;28;20030;-69
2023/06/08 06:17:08;;;;;;;8.80;6.75;;;17.90;68.70;;;;;;5084479;28;20016;-70
2023/06/08 06:19:40;;;;;;;8.50;6.32;;;18.00;68.40;;;;;;5081711;28;20093;-70
2023/06/08 06:22:07;;;;;;;11.50;7.13;;;18.10;68.10;;;;;;5085750;28;20024;-71
2023/06/08 06:24:32;;;;;;;9.98;7.07;;;18.10;67.80;;;;;;5078197;28;20024;-70
2023/06/08 06:26:58;;;;;;;10.90;6.32;;;18.20;67.40;;;;;;5093253;28;20860;-71
2023/06/08 06:29:25;;;;;;;11.95;8.90;;;18.20;67.30;;;;;;5080369;28;20455;-71
2023/06/08 06:31:50;;;;;;;12.07;8.45;;;18.20;66.00;;;;;;5092368;28;20102;-70
2023/06/08 06:34:16;;;;;;;12.30;8.07;;;17.90;66.20;;;;;;5084741;28;20031;-71
2023/06/08 06:36:42;;;;;;;13.85;8.15;;;18.00;66.60;;;;;;5080304;28;20054;-71
2023/06/08 06:39:08;;;;;;;10.55;7.05;;;18.10;66.10;;;;;;5085718;28;20090;-71
2023/06/08 06:41:33;;;;;;;9.80;6.80;;;18.10;66.00;;;;;;5094896;28;20504;-71
2023/06/08 06:43:59;;;;;;;11.02;7.57;;;18.10;66.00;;;;;;5085072;28;20256;-70
2023/06/08 06:46:25;;;;;;;11.77;7.68;;;18.10;66.10;;;;;;5085708;28;20032;-70
2023/06/08 06:48:51;;;;;;;12.15;7.53;;;18.00;65.80;;;;;;5088833;28;20103;-69
2023/06/08 06:51:16;;;;;;;11.27;7.28;;;17.90;65.90;;;;;;5084987;28;20530;-70
2023/06/08 06:53:42;;;;;;;11.05;7.20;;;17.90;66.20;;;;;;5086781;28;20082;-70
2023/06/08 06:56:08;;;;;;;10.38;5.95;;;17.80;66.20;;;;;;5087445;28;20020;-70
2023/06/08 06:58:33;;;;;;;9.07;6.10;;;17.80;66.40;;;;;;5090949;28;20031;-71
2023/06/08 07:01:01;;;;;;;9.23;6.50;;;17.90;67.10;;;;;;5080792;28;20518;-71
2023/06/08 07:03:27;;;;;;;9.23;7.03;;;17.80;66.50;;;;;;5082824;28;20023;-69
2023/06/08 07:05:59;;;;;;;8.50;6.53;;;17.90;66.60;;;;;;5085312;28;20382;-70
2023/06/08 07:08:26;;;;;;;10.25;6.82;;;17.80;66.70;;;;;;5090231;28;20529;-70
2023/06/08 07:10:52;;;;;;;10.95;7.72;;;17.90;66.70;;;;;;5086559;28;20099;-70
2023/06/08 07:13:17;;;;;;;8.00;6.07;;;18.10;66.60;;;;;;5086339;28;20108;-70
2023/06/08 07:15:43;;;;;;;8.98;6.22;;;18.20;66.40;;;;;;5083552;28;20050;-70
2023/06/08 07:18:09;;;;;;;10.63;6.75;;;18.30;66.20;;;;;;5085033;28;20029;-70
2023/06/08 07:20:35;;;;;;;9.63;6.60;;;18.30;66.00;;;;;;5077595;28;20031;-70
2023/06/08 07:23:00;;;;;;;11.88;7.68;;;18.40;65.80;;;;;;5086488;28;20081;-70
2023/06/08 07:25:26;;;;;;;9.60;6.68;;;18.50;65.40;;;;;;5088346;28;20079;-70
2023/06/08 07:27:51;;;;;;;11.45;7.10;;;18.50;65.30;;;;;;5084633;28;20071;-70
2023/06/08 07:30:17;;;;;;;10.73;6.97;;;18.70;65.10;;;;;;5087644;28;20028;-70
2023/06/08 07:32:45;;;;;;;8.40;5.90;;;18.70;64.80;;;;;;5086114;28;20021;-70
2023/06/08 07:35:11;;;;;;;9.40;5.90;;;18.80;64.80;;;;;;5092571;28;20028;-69
2023/06/08 07:37:37;;;;;;;9.30;5.82;;;18.90;64.50;;;;;;5091652;28;20023;-70
2023/06/08 07:40:09;;;;;;;9.95;5.78;;;18.90;64.50;;;;;;5080951;28;20032;-69
2023/06/08 07:42:35;;;;;;;7.18;5.00;;;18.90;64.50;;;;;;5085155;28;20026;-69
2023/06/08 07:45:01;;;;;;;7.93;5.80;;;19.00;64.30;;;;;;5089721;28;20032;-69
2023/06/08 07:47:26;;;;;;;7.88;6.28;;;19.10;64.10;;;;;;5094919;28;20638;-69
2023/06/08 07:49:52;;;;;;;8.52;5.50;;;19.10;63.90;;;;;;5084190;28;20056;-70
2023/06/08 07:52:18;;;;;;;9.85;6.32;;;19.00;64.00;;;;;;5090842;28;20107;-70
2023/06/08 07:54:43;;;;;;;9.98;6.32;;;19.10;64.00;;;;;;5081128;28;20020;-70
2023/06/08 07:57:11;;;;;;;10.30;6.57;;;19.10;63.60;;;;;;5083684;28;20034;-70
2023/06/08 07:59:36;;;;;;;8.38;5.70;;;19.20;63.50;;;;;;5081941;28;20070;-70
2023/06/08 08:02:08;;;;;;;9.45;6.10;;;19.30;63.30;;;;;;5082408;28;20060;-70
2023/06/08 08:04:33;;;;;;;10.10;6.00;;;19.30;62.70;;;;;;5091336;28;20104;-71
2023/06/08 08:06:59;;;;;;;9.13;5.60;;;19.30;62.90;;;;;;5087240;28;20048;-70
2023/06/08 08:09:25;;;;;;;9.20;5.80;;;19.40;62.80;;;;;;5087009;28;20032;-70
2023/06/08 08:11:50;;;;;;;8.10;5.50;;;19.50;62.90;;;;;;5083298;28;20483;-70
2023/06/08 08:14:16;;;;;;;9.70;6.20;;;19.50;62.60;;;;;;5089068;28;20024;-70
2023/06/08 08:16:44;;;;;;;9.95;6.50;;;19.50;62.50;;;;;;5087503;28;20020;-71
2023/06/08 08:19:10;;;;;;;7.88;5.93;;;19.50;62.30;;;;;;5088872;28;20063;-70
2023/06/08 08:21:35;;;;;;;10.98;6.30;;;19.40;62.40;;;;;;5084107;28;20554;-70
2023/06/08 08:24:01;;;;;;;8.00;5.72;;;19.40;62.40;;;;;;5086379;28;20039;-70
2023/06/08 08:26:28;;;;;;;7.93;5.75;;;19.40;62.40;;;;;;5085125;28;20103;-70
2023/06/08 08:28:56;;;;;;;8.05;6.00;;;19.40;62.40;;;;;;5078876;28;20687;-69
2023/06/08 08:31:22;;;;;;;9.80;6.38;;;19.30;62.40;;;;;;5077288;28;20012;-70
2023/06/08 08:33:47;;;;;;;9.43;6.00;;;19.30;62.50;;;;;;5083563;28;20023;-69
2023/06/08 08:36:17;;;;;;;11.10;7.07;;;19.40;63.20;;;;;;5076973;28;20059;-70
2023/06/08 08:38:43;;;;;;;9.85;6.85;;;19.30;62.40;;;;;;5083450;28;20079;-70
2023/06/08 08:41:13;;;;;;;9.38;6.13;;;19.30;62.60;;;;;;5087632;28;20552;-70
2023/06/08 08:43:56;;;;;;;9.32;6.57;;;19.30;62.70;;;;;;5086293;28;20024;-70
2023/06/08 08:46:23;;;;;;;13.25;6.47;;;19.30;62.80;;;;;;5088586;28;20064;-70
2023/06/08 08:48:50;;;;;;;10.02;6.45;;;19.40;62.70;;;;;;5082484;28;20031;-70
2023/06/08 08:51:18;;;;;;;8.98;6.18;;;19.30;62.60;;;;;;5080533;28;20031;-71
2023/06/08 08:53:48;;;;;;;11.85;6.65;;;19.30;62.50;;;;;;5080955;28;20040;-71
2023/06/08 08:56:20;;;;;;;8.90;6.65;;;19.20;62.30;;;;;;5082560;28;20036;-71
2023/06/08 08:58:54;;;;;;;12.57;7.10;;;19.10;62.30;;;;;;5086971;28;20042;-71
2023/06/08 09:01:22;;;;;;;8.05;5.82;;;19.10;62.50;;;;;;5087333;28;20021;-70
2023/06/08 09:03:48;;;;;;;10.13;5.75;;;19.10;62.50;;;;;;5090062;28;20048;-70
2023/06/08 09:06:14;;;;;;;13.13;6.40;;;19.20;62.50;;;;;;5085689;28;20028;-70
2023/06/08 09:08:40;;;;;;;10.05;6.20;;;19.20;62.40;;;;;;5085688;28;20440;-70
2023/06/08 09:11:09;;;;;;;9.45;6.20;;;19.10;62.30;;;;;;5086514;28;20016;-70
2023/06/08 09:13:35;;;;;;;9.32;6.15;;;19.10;62.40;;;;;;5087014;28;20074;-71
2023/06/08 09:16:16;;;;;;;9.60;5.45;;;19.20;62.50;;;;;;5090162;28;20035;-70
2023/06/08 09:18:43;;;;;;;8.43;5.63;;;19.30;62.40;;;;;;5092551;28;20016;-70
2023/06/08 09:21:24;;;;;;;9.02;5.97;;;19.40;62.30;;;;;;5084276;28;20024;-70
2023/06/08 09:24:11;;;;;;;9.45;5.80;;;19.50;62.20;;;;;;5083750;28;20051;-70
2023/06/08 09:26:45;;;;;;;10.57;6.82;;;19.80;61.90;;;;;;5082238;28;20017;-70
2023/06/08 09:29:12;;;;;;;10.73;7.03;;;20.10;61.70;;;;;;5080994;28;20028;-72
2023/06/08 09:31:49;;;;;;;11.27;7.60;;;20.30;60.50;;;;;;5084827;28;20490;-71
2023/06/08 09:34:14;;;;;;;8.30;6.00;;;20.60;60.00;;;;;;5081276;28;20024;-71
2023/06/08 09:36:40;;;;;;;10.40;6.38;;;20.70;59.50;;;;;;5084065;28;20074;-71
2023/06/08 09:39:07;;;;;;;11.13;7.50;;;20.90;58.30;;;;;;5083258;28;20016;-71
2023/06/08 09:41:37;;;;;;;10.82;6.25;;;20.70;57.60;;;;;;5086333;28;20028;-71
2023/06/08 09:44:17;;;;;;;9.35;5.40;;;20.80;58.40;;;;;;5083348;28;20028;-70
2023/06/08 09:46:46;;;;;;;7.35;5.10;;;20.90;58.40;;;;;;5081233;28;20043;-71
2023/06/08 09:49:13;;;;;;;8.60;5.60;;;21.10;58.20;;;;;;5090419;28;20161;-70
2023/06/08 09:51:45;;;;;;;8.05;5.55;;;21.10;58.10;;;;;;5084571;28;20097;-71
2023/06/08 09:54:13;;;;;;;9.73;5.30;;;21.30;57.70;;;;;;5086968;28;20084;-71
2023/06/08 09:56:44;;;;;;;8.70;5.70;;;21.60;57.50;;;;;;5087937;28;20055;-71
2023/06/08 09:59:13;;;;;;;7.45;4.95;;;21.60;56.50;;;;;;5088956;28;20031;-71
2023/06/08 10:01:59;;;;;;;7.85;5.07;;;21.80;56.50;;;;;;5087710;28;20111;-70
2023/06/08 10:04:31;;;;;;;8.75;5.25;;;21.90;56.40;;;;;;5086129;28;20486;-71
2023/06/08 10:07:06;;;;;;;9.55;5.00;;;22.10;56.30;;;;;;5085497;28;20072;-71
2023/06/08 10:09:36;;;;;;;7.93;4.72;;;22.20;56.90;;;;;;5080321;28;20051;-70
2023/06/08 10:12:02;;;;;;;8.60;5.07;;;22.40;56.10;;;;;;5083284;28;20028;-71
2023/06/08 10:14:28;;;;;;;8.07;5.32;;;22.60;55.50;;;;;;5083724;28;20028;-70
2023/06/08 10:16:55;;;;;;;7.10;4.80;;;22.70;55.00;;;;;;5084002;28;20051;-71
2023/06/08 10:19:22;;;;;;;7.85;4.85;;;22.90;55.00;;;;;;5081235;28;20038;-71
2023/06/08 10:21:48;;;;;;;10.70;4.82;;;23.10;55.00;;;;;;5082752;28;20020;-69
2023/06/08 10:24:15;;;;;;;7.85;5.32;;;23.30;54.60;;;;;;5081571;28;20024;-71
2023/06/08 10:26:41;;;;;;;8.25;5.18;;;23.40;54.00;;;;;;5086673;28;20016;-70
2023/06/08 10:29:08;;;;;;;8.10;4.78;;;23.60;53.90;;;;;;5093144;28;20032;-69
2023/06/08 10:31:39;;;;;;;9.15;4.72;;;23.70;53.70;;;;;;5083062;28;20016;-70
2023/06/08 10:34:09;;;;;;;7.25;4.18;;;23.80;53.50;;;;;;5085571;28;20020;-71
2023/06/08 10:36:36;;;;;;;6.47;3.70;;;23.90;53.50;;;;;;5083762;28;20032;-71
2023/06/08 10:39:12;;;;;;;8.57;5.30;;;23.90;53.40;;;;;;5082392;28;20597;-72
2023/06/08 10:41:56;;;;;;;7.88;4.93;;;23.80;52.90;;;;;;5082351;28;20034;-71
2023/06/08 10:44:25;;;;;;;9.02;5.65;;;23.60;53.30;;;;;;5084325;28;20387;-71
2023/06/08 10:46:59;;;;;;;7.90;4.90;;;23.60;53.10;;;;;;5083552;28;20035;-71
2023/06/08 10:49:29;;;;;;;5.72;4.32;;;23.80;53.20;;;;;;5082073;28;20114;-71
2023/06/08 10:51:56;;;;;;;6.55;4.70;;;23.90;52.80;;;;;;5087176;28;20024;-70
2023/06/08 10:54:23;;;;;;;6.50;4.60;;;24.10;52.50;;;;;;5090762;28;20023;-70
2023/06/08 10:56:52;;;;;;;8.15;4.60;;;24.20;52.50;;;;;;5077035;28;20501;-72
2023/06/08 10:59:33;;;;;;;7.03;4.40;;;24.40;52.00;;;;;;5087171;28;20027;-71
2023/06/08 11:02:04;;;;;;;7.03;4.38;;;24.40;51.80;;;;;;5089243;28;20121;-70
2023/06/08 11:04:31;;;;;;;6.40;3.97;;;24.50;51.70;;;;;;5085075;28;20169;-71
2023/06/08 11:07:04;;;;;;;6.82;3.60;;;24.70;51.60;;;;;;5088406;28;20032;-71
2023/06/08 11:09:32;;;;;;;7.10;4.43;;;24.80;51.20;;;;;;5087030;28;20035;-71
2023/06/08 11:11:59;;;;;;;5.88;4.68;;;24.80;49.90;;;;;;5083119;28;20115;-71
2023/06/08 11:14:25;;;;;;;7.72;4.60;;;24.60;49.50;;;;;;5090179;28;20493;-71
2023/06/08 11:16:52;;;;;;;5.10;3.92;;;24.50;49.90;;;;;;5089264;28;20060;-71
2023/06/08 11:19:19;;;;;;;4.97;3.20;;;24.50;50.20;;;;;;5087901;28;20027;-71
2023/06/08 11:21:47;;;;;;;9.32;4.32;;;24.80;50.50;;;;;;5086621;28;20028;-71
2023/06/08 11:24:14;;;;;;;7.53;4.03;;;25.00;50.00;;;;;;5088087;28;20745;-71
2023/06/08 11:26:40;;;;;;;6.15;3.50;;;25.20;49.90;;;;;;5083969;28;20062;-71
2023/06/08 11:29:06;;;;;;;5.50;3.70;;;25.40;49.60;;;;;;5088804;28;20060;-70
2023/06/08 11:31:38;;;;;;;6.95;3.58;;;25.50;49.40;;;;;;5091237;28;20476;-70
2023/06/08 11:34:04;;;;;;;7.28;3.97;;;25.70;49.20;;;;;;5083155;28;20020;-70
2023/06/08 11:36:30;;;;;;;8.48;3.83;;;25.60;48.60;;;;;;5088250;28;20032;-71
2023/06/08 11:38:56;;;;;;;7.40;3.78;;;25.70;49.00;;;;;;5087101;28;20026;-69
2023/06/08 11:41:25;;;;;;;6.20;3.97;;;25.80;48.90;;;;;;5089753;28;20907;-70
2023/06/08 11:43:51;;;;;;;5.80;3.75;;;25.90;48.90;;;;;;5093307;28;20023;-71
2023/06/08 11:46:18;;;;;;;6.15;4.10;;;26.00;48.60;;;;;;5088516;28;20028;-70
2023/06/08 11:48:43;;;;;;;5.95;4.10;;;26.00;48.10;;;;;;5088517;28;20016;-71
2023/06/08 11:51:09;;;;;;;6.18;4.07;;;26.00;48.50;;;;;;5082983;28;20379;-71
2023/06/08 11:53:35;;;;;;;5.85;3.63;;;26.20;48.30;;;;;;5092132;28;20195;-70
2023/06/08 11:56:01;;;;;;;5.63;4.10;;;26.10;47.80;;;;;;5087197;28;20029;-70
2023/06/08 11:58:29;;;;;;;5.90;3.60;;;26.00;47.50;;;;;;5086672;28;20034;-70
2023/06/08 12:01:09;;;;;;;5.72;3.70;;;25.90;48.00;;;;;;5091659;28;20072;-70
2023/06/08 12:03:44;;;;;;;6.97;3.67;;;26.00;48.20;;;;;;5084843;28;20032;-70
2023/06/08 12:06:10;;;;;;;6.45;3.65;;;26.20;48.00;;;;;;5085534;28;20486;-70
2023/06/08 12:08:36;;;;;;;6.43;4.00;;;26.40;48.00;;;;;;5093975;28;20023;-70
2023/06/08 12:11:09;;;;;;;7.18;3.40;;;26.60;48.30;;;;;;5094453;28;20777;-71
2023/06/08 12:13:35;;;;;;;5.75;3.60;;;26.70;47.60;;;;;;5085099;28;20028;-71
2023/06/08 12:16:05;;;;;;;5.82;4.10;;;26.60;47.30;;;;;;5086510;28;20028;-72
2023/06/08 12:18:40;;;;;;;6.60;3.75;;;26.50;47.00;;;;;;5081727;28;20048;-70
2023/06/08 12:21:08;;;;;;;6.43;3.83;;;26.50;47.50;;;;;;5093464;28;20040;-70
2023/06/08 12:23:34;;;;;;;5.30;3.03;;;26.60;47.50;;;;;;5092893;28;20516;-70
2023/06/08 12:26:00;;;;;;;5.57;3.47;;;26.80;47.30;;;;;;5095271;28;20032;-72
2023/06/08 12:28:26;;;;;;;6.00;3.67;;;26.90;46.80;;;;;;5095548;28;20149;-71
2023/06/08 12:30:53;;;;;;;6.15;3.28;;;26.80;46.70;;;;;;5092772;28;20103;-71
2023/06/08 12:33:20;;;;;;;6.70;3.95;;;27.00;47.00;;;;;;5089613;28;20022;-71
2023/06/08 12:35:50;;;;;;;5.22;3.75;;;26.90;46.20;;;;;;5092200;28;20036;-71
2023/06/08 12:38:16;;;;;;;5.82;3.20;;;27.10;46.40;;;;;;5093814;28;20020;-71
2023/06/08 12:40:47;;;;;;;9.07;4.15;;;27.30;46.60;;;;;;5085212;28;20016;-71
2023/06/08 12:43:18;;;;;;;7.50;4.20;;;27.10;45.40;;;;;;5095692;28;20104;-71